createdAt,value
2023-04-05T00:00:55.285Z,71.71
2023-04-05T00:03:23.205Z,71.85
2023-04-05T00:05:50.876Z,72.21
2023-04-05T00:08:23.966Z,72.54
2023-04-05T00:10:51.835Z,73.27
2023-04-05T00:13:19.572Z,74.27
2023-04-05T00:15:47.193Z,74.19
2023-04-05T00:18:21.810Z,74.59
2023-04-05T00:20:49.725Z,74.77
2023-04-05T00:23:18.595Z,75.35
2023-04-05T00:25:48.060Z,75.58
2023-04-05T00:28:15.897Z,75.59
2023-04-05T00:30:43.537Z,76.17
2023-04-05T00:33:13.719Z,76.16
2023-04-05T00:35:41.516Z,76.28
2023-04-05T00:38:09.615Z,76.70
2023-04-05T00:40:37.727Z,76.74
2023-04-05T00:43:06.704Z,76.27
2023-04-05T00:45:34.480Z,76.50
2023-04-05T00:48:02.469Z,77.05
2023-04-05T00:50:31.014Z,78.11
2023-04-05T00:52:59.194Z,78.50
2023-04-05T00:55:27.791Z,77.17
2023-04-05T00:57:56.615Z,76.89
2023-04-05T01:00:26.068Z,76.49
2023-04-05T01:03:01.924Z,76.64
2023-04-05T01:05:38.120Z,75.96
2023-04-05T01:08:13.500Z,75.81
2023-04-05T01:10:45.705Z,75.90
2023-04-05T01:17:03.211Z,74.83
2023-04-05T01:19:31.123Z,75.01
2023-04-05T01:22:38.123Z,75.76
2023-04-05T01:25:23.664Z,75.13
2023-04-05T01:28:14.158Z,74.70
2023-04-05T01:30:49.260Z,75.49
2023-04-05T01:33:25.890Z,74.84
2023-04-05T01:36:00.819Z,74.45
2023-04-05T01:38:29.580Z,74.94
2023-04-05T01:40:57.493Z,74.43
2023-04-05T01:43:25.252Z,74.91
2023-04-05T01:45:54.148Z,75.08
2023-04-05T01:48:22.161Z,75.17
2023-04-05T01:50:49.778Z,74.58
2023-04-05T01:53:17.497Z,74.95
2023-04-05T01:55:45.059Z,75.45
2023-04-05T01:58:12.634Z,75.53
2023-04-05T02:00:40.456Z,75.77
2023-04-05T02:03:09.775Z,75.86
2023-04-05T02:05:37.424Z,75.81
2023-04-05T02:08:05.481Z,76.35
2023-04-05T02:10:33.111Z,76.13
2023-04-05T02:13:00.960Z,76.00
2023-04-05T02:15:28.582Z,75.48
2023-04-05T02:18:02.028Z,75.81
2023-04-05T02:20:31.224Z,75.20
2023-04-05T02:23:00.630Z,75.04
2023-04-05T02:25:29.794Z,74.93
2023-04-05T02:27:58.593Z,74.82
2023-04-05T02:30:28.889Z,75.32
2023-04-05T02:32:57.330Z,75.09
2023-04-05T02:35:25.078Z,74.38
2023-04-05T02:37:54.260Z,74.48
2023-04-05T02:40:22.830Z,75.18
2023-04-05T02:42:50.555Z,74.81
2023-04-05T02:45:19.591Z,75.60
2023-04-05T02:47:47.748Z,74.99
2023-04-05T02:50:20.330Z,75.47
2023-04-05T02:52:48.221Z,75.05
2023-04-05T02:55:17.909Z,75.63
2023-04-05T02:57:46.875Z,75.38
2023-04-05T03:00:29.082Z,75.18
2023-04-05T03:02:59.720Z,74.77
2023-04-05T03:05:27.588Z,75.11
2023-04-05T03:07:55.230Z,75.17
2023-04-05T03:10:34.915Z,75.59
2023-04-05T03:13:10.390Z,75.48
2023-04-05T03:15:38.831Z,75.91
2023-04-05T03:18:12.246Z,75.68
2023-04-05T03:20:41.979Z,75.79
2023-04-05T03:23:17.539Z,75.74
2023-04-05T03:25:48.375Z,75.90
2023-04-05T03:28:18.316Z,75.46
2023-04-05T03:30:49.169Z,76.11
2023-04-05T03:33:20.580Z,75.96
2023-04-05T03:35:51.329Z,76.87
2023-04-05T03:38:19.785Z,77.27
2023-04-05T03:40:59.187Z,76.38
2023-04-05T03:43:27.821Z,76.55
2023-04-05T03:45:55.955Z,77.22
2023-04-05T03:48:24.336Z,77.35
2023-04-05T03:50:51.936Z,77.72
2023-04-05T03:53:21.530Z,77.85
2023-04-05T03:55:55.662Z,77.96
2023-04-05T03:58:40.044Z,77.88
2023-04-05T04:01:07.949Z,78.04
2023-04-05T04:03:37.444Z,78.22
2023-04-05T04:06:06.160Z,77.63
2023-04-05T04:08:34.398Z,77.92
2023-04-05T04:11:01.964Z,76.94
2023-04-05T04:13:33.915Z,77.02
2023-04-05T04:16:12.519Z,77.14
2023-04-05T04:18:47.445Z,76.57
2023-04-05T04:21:33.779Z,76.67
2023-04-05T04:24:27.187Z,76.55
2023-04-05T04:27:12.177Z,76.38
2023-04-05T04:29:46.746Z,76.24
2023-04-05T04:35:29.578Z,76.18
2023-04-05T04:38:07.323Z,76.85
2023-04-05T04:40:47.485Z,76.63
2023-04-05T04:43:27.710Z,76.46
2023-04-05T04:46:19.101Z,76.63
2023-04-05T04:48:58.621Z,77.50
2023-04-05T04:51:34.179Z,77.14
2023-04-05T04:54:01.753Z,77.47
2023-04-05T04:56:29.496Z,77.52
2023-04-05T04:58:59.257Z,77.49
2023-04-05T05:01:26.978Z,77.53
2023-04-05T05:03:54.703Z,77.56
2023-04-05T05:06:27.219Z,77.26
2023-04-05T05:08:56.448Z,76.96
2023-04-05T05:11:25.628Z,77.21
2023-04-05T05:13:53.517Z,76.90
2023-04-05T05:16:24.692Z,76.44
2023-04-05T05:18:52.612Z,76.20
2023-04-05T05:21:21.445Z,76.31
2023-04-05T05:23:57.375Z,76.38
2023-04-05T05:26:25.040Z,75.94
2023-04-05T05:28:54.168Z,76.29
2023-04-05T05:31:22.602Z,76.96
2023-04-05T05:33:50.775Z,76.67
2023-04-05T05:36:19.847Z,76.35
2023-04-05T05:38:49.013Z,76.97
2023-04-05T05:41:18.051Z,77.22
2023-04-05T05:43:45.926Z,77.35
2023-04-05T05:46:13.700Z,76.89
2023-04-05T05:48:41.839Z,76.75
2023-04-05T05:51:10.428Z,76.64
2023-04-05T05:53:38.363Z,76.29
2023-04-05T05:56:07.339Z,75.67
2023-04-05T05:58:36.745Z,75.74
2023-04-05T06:01:04.567Z,76.14
2023-04-05T06:03:32.317Z,75.47
2023-04-05T06:06:03.070Z,74.28
2023-04-05T06:08:30.736Z,73.93
2023-04-05T06:10:58.762Z,73.14
2023-04-05T06:13:26.333Z,71.90
2023-04-05T06:15:55.376Z,71.83
2023-04-05T06:18:23.096Z,70.72
2023-04-05T06:20:50.770Z,70.91
2023-04-05T06:23:18.337Z,69.49
2023-04-05T06:25:46.274Z,69.62
2023-04-05T06:28:13.821Z,68.94
2023-04-05T06:30:41.714Z,68.88
2023-04-05T06:33:10.776Z,69.25
2023-04-05T06:35:38.441Z,68.27
2023-04-05T06:38:06.042Z,68.30
2023-04-05T06:40:33.756Z,67.69
2023-04-05T06:43:01.368Z,68.57
2023-04-05T06:45:32.373Z,68.04
2023-04-05T06:48:00.027Z,67.60
2023-04-05T06:50:29.129Z,67.91
2023-04-05T06:52:56.840Z,66.90
2023-04-05T06:55:24.566Z,66.69
2023-04-05T06:57:52.202Z,67.12
2023-04-05T07:00:20.725Z,66.54
2023-04-05T07:02:48.325Z,66.90
2023-04-05T07:05:16.195Z,66.98
2023-04-05T07:07:45.542Z,65.81
2023-04-05T07:10:13.272Z,65.64
2023-04-05T07:12:41.126Z,64.99
2023-04-05T07:15:09.663Z,64.85
2023-04-05T07:17:37.425Z,64.38
2023-04-05T07:20:08.019Z,64.40
2023-04-05T07:22:36.063Z,65.25
2023-04-05T07:25:05.986Z,65.15
2023-04-05T07:27:34.935Z,63.53
2023-04-05T07:30:02.653Z,63.70
2023-04-05T07:32:30.503Z,63.94
2023-04-05T07:34:58.388Z,63.73
2023-04-05T07:37:27.359Z,63.32
2023-04-05T07:39:55.049Z,63.25
2023-04-05T07:42:23.930Z,62.77
2023-04-05T07:44:51.734Z,63.03
2023-04-05T07:47:20.348Z,62.15
2023-04-05T07:49:48.028Z,62.61
2023-04-05T07:52:15.663Z,62.29
2023-04-05T07:54:44.001Z,61.18
2023-04-05T07:57:11.655Z,61.31
2023-04-05T07:59:40.599Z,60.10
2023-04-05T08:02:14.452Z,60.80
2023-04-05T08:04:42.730Z,60.57
2023-04-05T08:07:10.362Z,60.06
2023-04-05T08:09:38.111Z,59.84
2023-04-05T08:12:06.572Z,59.97
2023-04-05T08:14:34.299Z,58.56
2023-04-05T08:17:03.187Z,58.30
2023-04-05T08:19:31.077Z,58.72
2023-04-05T08:21:58.622Z,58.90
2023-04-05T08:24:26.541Z,58.21
2023-04-05T08:26:54.142Z,58.18
2023-04-05T08:29:21.768Z,56.37
2023-04-05T08:31:49.598Z,55.78
2023-04-05T08:34:18.734Z,55.79
2023-04-05T08:36:47.595Z,55.19
2023-04-05T08:39:16.548Z,56.03
2023-04-05T08:41:55.093Z,54.93
2023-04-05T08:44:23.828Z,54.85
2023-04-05T08:46:51.811Z,55.43
2023-04-05T08:49:20.942Z,53.27
2023-04-05T08:51:49.623Z,52.13
2023-04-05T08:54:18.306Z,50.52
2023-04-05T08:56:48.006Z,50.25
2023-04-05T08:59:18.118Z,51.36
2023-04-05T09:01:48.961Z,51.13
2023-04-05T09:04:19.344Z,48.69
2023-04-05T09:06:50.289Z,48.64
2023-04-05T09:09:19.700Z,48.24
2023-04-05T09:11:47.703Z,47.45
2023-04-05T09:14:16.084Z,46.17
2023-04-05T09:16:44.128Z,45.54
2023-04-05T09:19:12.139Z,48.19
2023-04-05T09:22:00.696Z,46.61
2023-04-05T09:24:33.443Z,47.94
2023-04-05T09:27:08.807Z,47.79
2023-04-05T09:29:37.042Z,47.79
2023-04-05T09:32:07.580Z,47.80
2023-04-05T09:34:36.827Z,46.33
2023-04-05T09:37:14.299Z,47.25
2023-04-05T09:39:42.124Z,46.86
2023-04-05T09:42:11.652Z,45.57
2023-04-05T09:44:54.477Z,45.37
2023-04-05T09:47:23.434Z,45.41
2023-04-05T09:49:55.887Z,46.89
2023-04-05T09:52:26.312Z,45.86
2023-04-05T09:54:56.425Z,44.93
2023-04-05T09:57:26.377Z,44.68
2023-04-05T09:59:55.243Z,45.11
2023-04-05T10:02:24.023Z,44.25
2023-04-05T10:04:52.361Z,43.46
2023-04-05T10:07:21.144Z,42.59
2023-04-05T10:09:50.398Z,41.65
2023-04-05T10:12:25.833Z,41.50
2023-04-05T10:14:53.656Z,40.74
2023-04-05T10:17:27.404Z,42.54
2023-04-05T10:20:07.117Z,43.71
2023-04-05T10:22:41.993Z,41.66
2023-04-05T10:25:17.293Z,39.58
2023-04-05T10:27:49.175Z,37.23
2023-04-05T10:30:17.900Z,38.99
2023-04-05T10:32:59.025Z,38.93
2023-04-05T10:35:35.519Z,38.93
2023-04-05T10:38:18.363Z,39.40
2023-04-05T10:40:48.702Z,39.99
2023-04-05T10:43:21.815Z,40.10
2023-04-05T10:45:53.035Z,40.25
2023-04-05T10:48:30.015Z,40.50
2023-04-05T10:50:59.383Z,36.95
2023-04-05T10:53:27.513Z,38.64
2023-04-05T10:55:58.168Z,36.34
2023-04-05T10:58:27.020Z,35.30
2023-04-05T11:00:56.257Z,36.26
2023-04-05T11:03:42.787Z,36.15
2023-04-05T11:06:32.812Z,36.87
2023-04-05T11:09:02.147Z,35.97
2023-04-05T11:11:40.160Z,35.01
2023-04-05T11:14:19.681Z,35.16
2023-04-05T11:16:49.118Z,34.92
2023-04-05T11:19:17.818Z,36.29
2023-04-05T11:21:46.041Z,36.90
2023-04-05T11:24:16.011Z,35.20
2023-04-05T11:26:59.962Z,36.16
2023-04-05T11:29:49.982Z,35.49
2023-04-05T11:32:18.578Z,35.36
2023-04-05T11:34:58.867Z,35.55
2023-04-05T11:38:02.187Z,37.14
2023-04-05T11:40:31.077Z,38.65
2023-04-05T11:43:08.619Z,37.29
2023-04-05T11:45:37.934Z,38.29
2023-04-05T11:48:07.373Z,38.28
2023-04-05T11:50:36.617Z,37.17
2023-04-05T11:53:14.508Z,37.27
2023-04-05T11:55:43.788Z,37.73
2023-04-05T11:58:17.500Z,37.01
2023-04-05T12:00:46.978Z,38.50
2023-04-05T12:03:16.139Z,37.22
2023-04-05T12:05:51.078Z,39.39
2023-04-05T12:08:19.694Z,38.26
2023-04-05T12:10:55.398Z,38.79
2023-04-05T12:13:32.868Z,38.34
2023-04-05T12:16:01.540Z,37.14
2023-04-05T12:18:31.434Z,36.45
2023-04-05T12:20:59.382Z,38.61
2023-04-05T12:23:27.639Z,39.22
2023-04-05T12:25:57.849Z,36.56
2023-04-05T12:28:25.677Z,35.85
2023-04-05T12:30:57.060Z,36.59
2023-04-05T12:33:29.359Z,37.32
2023-04-05T12:35:57.602Z,34.92
2023-04-05T12:38:27.163Z,35.33
2023-04-05T12:40:55.005Z,36.55
2023-04-05T12:43:23.836Z,36.63
2023-04-05T12:45:56.527Z,36.32
2023-04-05T12:48:26.112Z,36.82
2023-04-05T12:50:54.948Z,36.57
2023-04-05T12:53:28.433Z,36.39
2023-04-05T12:55:57.580Z,35.16
2023-04-05T12:58:34.755Z,34.57
2023-04-05T13:01:04.393Z,36.87
2023-04-05T13:03:32.116Z,35.59
2023-04-05T13:05:59.776Z,34.48
2023-04-05T13:08:27.837Z,34.46
2023-04-05T13:10:57.923Z,35.30
2023-04-05T13:13:26.140Z,34.35
2023-04-05T13:15:54.199Z,33.76
2023-04-05T13:18:23.273Z,35.36
2023-04-05T13:20:50.973Z,35.76
2023-04-05T13:23:18.703Z,32.43
2023-04-05T13:25:46.287Z,33.82
2023-04-05T13:28:14.074Z,33.17
2023-04-05T13:30:41.647Z,32.52
2023-04-05T13:33:09.543Z,33.54
2023-04-05T13:35:38.546Z,34.47
2023-04-05T13:38:06.749Z,35.19
2023-04-05T13:40:34.385Z,36.29
2023-04-05T13:43:02.198Z,35.00
2023-04-05T13:45:29.939Z,33.99
2023-04-05T13:47:57.784Z,34.19
2023-04-05T13:50:25.642Z,34.61
2023-04-05T13:52:54.729Z,34.79
2023-04-05T13:55:22.287Z,33.85
2023-04-05T13:57:50.271Z,35.20
2023-04-05T14:00:18.421Z,32.86
2023-04-05T14:02:46.612Z,33.04
2023-04-05T14:05:15.473Z,33.41
2023-04-05T14:07:43.234Z,32.77
2023-04-05T14:10:12.510Z,33.35
2023-04-05T14:12:40.639Z,32.66
2023-04-05T14:15:09.054Z,33.31
2023-04-05T14:17:36.775Z,34.12
2023-04-05T14:20:04.473Z,34.13
2023-04-05T14:22:32.375Z,31.30
2023-04-05T14:24:59.949Z,30.84
2023-04-05T14:27:29.153Z,30.20
2023-04-05T14:29:57.298Z,30.38
2023-04-05T14:32:25.453Z,31.25
2023-04-05T14:34:53.152Z,32.12
2023-04-05T14:37:20.927Z,31.68
2023-04-05T14:39:48.507Z,31.84
2023-04-05T14:42:16.212Z,32.75
2023-04-05T14:44:45.663Z,30.90
2023-04-05T14:47:13.666Z,30.73
2023-04-05T14:49:41.458Z,30.82
2023-04-05T14:52:09.128Z,30.92
2023-04-05T14:54:36.688Z,29.61
2023-04-05T14:57:04.425Z,29.96
2023-04-05T14:59:32.611Z,30.94
2023-04-05T15:02:01.890Z,29.91
2023-04-05T15:04:30.344Z,31.06
2023-04-05T15:06:58.153Z,30.07
2023-04-05T15:09:25.960Z,31.96
2023-04-05T15:11:55.063Z,29.73
2023-04-05T15:14:31.723Z,30.07
2023-04-05T15:17:01.347Z,30.42
2023-04-05T15:19:30.664Z,31.66
2023-04-05T15:21:58.387Z,30.86
2023-04-05T15:24:26.273Z,30.24
2023-04-05T15:26:53.848Z,30.19
2023-04-05T15:29:21.510Z,31.13
2023-04-05T15:31:49.120Z,29.96
2023-04-05T15:34:18.215Z,30.26
2023-04-05T15:36:45.886Z,30.21
2023-04-05T15:39:14.582Z,29.73
2023-04-05T15:41:42.243Z,30.81
2023-04-05T15:44:09.930Z,30.88
2023-04-05T15:46:37.614Z,29.53
2023-04-05T15:49:05.679Z,28.65
2023-04-05T15:51:35.811Z,28.69
2023-04-05T15:54:03.751Z,28.59
2023-04-05T15:56:32.027Z,28.95
2023-04-05T15:59:00.454Z,29.07
2023-04-05T16:01:28.352Z,30.25
2023-04-05T16:03:56.272Z,28.85
2023-04-05T16:06:27.995Z,30.17
2023-04-05T16:08:57.539Z,28.75
2023-04-05T16:11:25.544Z,28.77
2023-04-05T16:13:54.515Z,29.97
2023-04-05T16:16:34.716Z,29.25
2023-04-05T16:19:10.486Z,29.14
2023-04-05T16:21:38.066Z,28.21
2023-04-05T16:24:07.647Z,28.30
2023-04-05T16:26:35.597Z,28.64
2023-04-05T16:29:03.580Z,29.44
2023-04-05T16:31:31.402Z,29.22
2023-04-05T16:33:59.287Z,29.92
2023-04-05T16:36:27.539Z,30.92
2023-04-05T16:38:55.361Z,31.04
2023-04-05T16:41:24.326Z,30.83
2023-04-05T16:43:52.432Z,31.19
2023-04-05T16:46:20.309Z,31.73
2023-04-05T16:48:48.131Z,32.38
2023-04-05T16:51:16.236Z,32.57
2023-04-05T16:53:43.975Z,33.71
2023-04-05T16:56:11.814Z,34.28
2023-04-05T16:58:40.873Z,35.71
2023-04-05T17:01:09.075Z,36.07
2023-04-05T17:03:36.765Z,36.08
2023-04-05T17:06:05.795Z,36.47
2023-04-05T17:08:33.405Z,37.47
2023-04-05T17:11:01.043Z,37.36
2023-04-05T17:13:28.661Z,35.91
2023-04-05T17:15:58.179Z,35.58
2023-04-05T17:18:25.809Z,35.93
2023-04-05T17:20:53.384Z,36.38
2023-04-05T17:23:20.960Z,36.24
2023-04-05T17:25:48.543Z,36.94
2023-04-05T17:28:16.181Z,38.00
2023-04-05T17:30:43.772Z,38.82
2023-04-05T17:33:12.749Z,39.37
2023-04-05T17:35:40.412Z,39.91
2023-04-05T17:38:08.024Z,41.10
2023-04-05T17:40:35.609Z,42.38
2023-04-05T17:43:03.199Z,42.90
2023-04-05T17:45:31.161Z,43.56
2023-04-05T17:47:58.911Z,44.48
2023-04-05T17:50:28.471Z,44.66
2023-04-05T17:52:56.055Z,45.60
2023-04-05T17:55:23.654Z,46.31
2023-04-05T17:57:51.216Z,46.45
2023-04-05T18:00:19.536Z,46.36
2023-04-05T18:02:47.453Z,49.37
2023-04-05T18:05:15.614Z,50.54
2023-04-05T18:07:44.540Z,50.20
2023-04-05T18:10:13.187Z,50.29
2023-04-05T18:12:41.297Z,50.96
2023-04-05T18:15:09.739Z,50.79
2023-04-05T18:17:37.354Z,51.68
2023-04-05T18:20:06.611Z,51.32
2023-04-05T18:22:34.547Z,51.82
2023-04-05T18:25:04.039Z,52.97
2023-04-05T18:27:32.758Z,52.91
2023-04-05T18:30:00.337Z,53.11
2023-04-05T18:32:28.153Z,53.86
2023-04-05T18:34:55.954Z,54.14
2023-04-05T18:37:23.894Z,55.29
2023-04-05T18:39:51.602Z,56.18
2023-04-05T18:42:20.546Z,56.47
2023-04-05T18:44:49.197Z,57.17
2023-04-05T18:47:16.843Z,57.92
2023-04-05T18:49:44.423Z,58.22
2023-04-05T18:52:12.163Z,58.97
2023-04-05T18:54:40.052Z,59.36
2023-04-05T18:57:07.950Z,59.43
2023-04-05T18:59:36.929Z,59.77
2023-04-05T19:02:05.201Z,59.96
2023-04-05T19:04:32.891Z,59.74
2023-04-05T19:07:00.574Z,60.34
2023-04-05T19:09:28.215Z,60.38
2023-04-05T19:11:56.422Z,60.94
2023-04-05T19:14:24.606Z,61.36
2023-04-05T19:16:53.566Z,61.14
2023-04-05T19:19:21.134Z,60.62
2023-04-05T19:21:48.904Z,60.39
2023-04-05T19:24:16.577Z,60.87
2023-04-05T19:26:45.478Z,60.98
2023-04-05T19:29:13.213Z,61.56
2023-04-05T19:31:41.502Z,62.50
2023-04-05T19:34:10.522Z,62.39
2023-04-05T19:36:39.239Z,62.63
2023-04-05T19:39:07.644Z,62.70
2023-04-05T19:41:35.969Z,63.46
2023-04-05T19:44:09.808Z,64.27
2023-04-05T19:46:39.649Z,64.50
2023-04-05T19:49:12.101Z,64.83
2023-04-05T19:51:39.890Z,64.66
2023-04-05T19:54:11.860Z,64.41
2023-04-05T19:56:40.038Z,64.24
2023-04-05T19:59:28.101Z,63.74
2023-04-05T20:01:56.108Z,64.88
2023-04-05T20:04:26.607Z,65.61
2023-04-05T20:06:56.056Z,65.70
2023-04-05T20:09:25.353Z,66.03
2023-04-05T20:11:56.870Z,66.27
2023-04-05T20:14:28.997Z,66.72
2023-04-05T20:16:57.721Z,66.91
2023-04-05T20:19:30.823Z,67.98
2023-04-05T20:21:59.603Z,69.08
2023-04-05T20:24:27.902Z,70.03
2023-04-05T20:26:57.077Z,69.28
2023-04-05T20:29:27.270Z,69.26
2023-04-05T20:31:55.711Z,69.04
2023-04-05T20:34:29.801Z,67.88
2023-04-05T20:37:00.536Z,66.92
2023-04-05T20:39:28.900Z,65.95
2023-04-05T20:41:56.955Z,66.07
2023-04-05T20:44:25.023Z,65.55
2023-04-05T20:46:54.038Z,65.03
2023-04-05T20:49:22.369Z,65.03
2023-04-05T20:51:51.918Z,65.29
2023-04-05T20:54:21.357Z,65.40
2023-04-05T20:56:48.988Z,65.63
2023-04-05T20:59:17.154Z,65.26
2023-04-05T21:01:47.067Z,66.06
2023-04-05T21:04:15.285Z,66.21
2023-04-05T21:06:42.931Z,67.32
2023-04-05T21:09:12.044Z,68.00
2023-04-05T21:11:39.710Z,67.97
2023-04-05T21:14:07.323Z,67.58
2023-04-05T21:16:34.889Z,67.56
2023-04-05T21:19:02.464Z,67.58
2023-04-05T21:21:31.151Z,68.75
2023-04-05T21:23:58.742Z,68.97
2023-04-05T21:26:27.670Z,69.41
2023-04-05T21:28:55.355Z,70.35
2023-04-05T21:31:22.926Z,70.29
2023-04-05T21:33:50.811Z,71.56
2023-04-05T21:36:18.386Z,71.43
2023-04-05T21:38:46.206Z,72.19
2023-04-05T21:41:13.752Z,71.82
2023-04-05T21:43:42.887Z,72.61
2023-04-05T21:46:11.729Z,71.17
2023-04-05T21:48:39.393Z,71.70
2023-04-05T21:51:06.990Z,72.47
2023-04-05T21:53:34.785Z,72.30
2023-04-05T21:56:02.349Z,72.97
2023-04-05T21:58:30.563Z,73.40
2023-04-05T22:01:00.256Z,74.07
2023-04-05T22:03:28.058Z,73.79
2023-04-05T22:05:55.767Z,73.43
2023-04-05T22:08:23.477Z,73.34
2023-04-05T22:10:51.263Z,74.22
2023-04-05T22:13:18.968Z,74.20
2023-04-05T22:15:47.609Z,74.09
2023-04-05T22:18:16.803Z,74.49
2023-04-05T22:20:44.392Z,75.48
2023-04-05T22:23:12.581Z,75.74
2023-04-05T22:25:40.282Z,75.37
2023-04-05T22:28:07.847Z,75.20
2023-04-05T22:30:43.839Z,74.41
2023-04-05T22:33:13.510Z,74.32
2023-04-05T22:35:42.817Z,74.78
2023-04-05T22:38:10.445Z,75.33
2023-04-05T22:40:38.152Z,74.86
2023-04-05T22:43:05.736Z,75.74
2023-04-05T22:45:33.593Z,76.29
2023-04-05T22:48:01.293Z,77.01
2023-04-05T22:50:29.177Z,77.17
2023-04-05T22:52:58.119Z,76.14
2023-04-05T22:55:25.960Z,76.49
2023-04-05T22:57:53.558Z,77.14
2023-04-05T23:00:21.516Z,77.40
2023-04-05T23:02:49.198Z,77.65
2023-04-05T23:05:17.017Z,76.95
2023-04-05T23:07:44.731Z,76.97
2023-04-05T23:10:13.946Z,76.84
2023-04-05T23:12:41.720Z,77.01
2023-04-05T23:15:10.126Z,77.74
2023-04-05T23:17:37.821Z,78.18
2023-04-05T23:20:06.399Z,77.76
2023-04-05T23:22:34.893Z,77.43
2023-04-05T23:25:03.100Z,77.86
2023-04-05T23:27:32.163Z,77.79
2023-04-05T23:29:59.908Z,77.53
2023-04-05T23:32:27.675Z,78.38
2023-04-05T23:34:55.598Z,77.91
2023-04-05T23:37:23.160Z,78.28
2023-04-05T23:39:50.979Z,78.20
2023-04-05T23:42:18.564Z,78.31
2023-04-05T23:44:48.030Z,78.50
2023-04-05T23:47:15.596Z,78.25
2023-04-05T23:49:43.450Z,78.14
2023-04-05T23:52:11.108Z,78.48
2023-04-05T23:54:38.898Z,78.46
2023-04-05T23:57:06.600Z,77.63
2023-04-05T23:59:34.960Z,78.15
